createdAt,value
2023-09-20T00:01:05.574Z,1.70
2023-09-20T00:03:33.001Z,1.80
2023-09-20T00:06:02.998Z,1.93
2023-09-20T00:08:31.079Z,1.93
2023-09-20T00:10:57.783Z,2.20
2023-09-20T00:13:24.396Z,2.10
2023-09-20T00:15:56.544Z,2.00
2023-09-20T00:18:26.125Z,2.00
2023-09-20T00:20:52.704Z,1.80
2023-09-20T00:23:22.406Z,2.10
2023-09-20T00:25:50.564Z,1.93
2023-09-20T00:28:20.176Z,2.07
2023-09-20T00:30:46.878Z,2.03
2023-09-20T00:33:13.510Z,1.80
2023-09-20T00:35:43.056Z,2.20
2023-09-20T00:38:09.963Z,2.40
2023-09-20T00:40:38.382Z,1.90
2023-09-20T00:43:07.981Z,2.10
2023-09-20T00:45:35.178Z,1.93
2023-09-20T00:48:03.317Z,2.47
2023-09-20T00:50:33.149Z,2.00
2023-09-20T00:53:06.940Z,1.90
2023-09-20T00:55:34.643Z,1.87
2023-09-20T00:58:08.846Z,2.03
2023-09-20T01:00:38.426Z,2.43
2023-09-20T01:03:05.722Z,2.07
2023-09-20T01:05:38.638Z,2.20
2023-09-20T01:08:07.393Z,2.10
2023-09-20T01:10:34.652Z,2.07
2023-09-20T01:13:04.139Z,2.00
2023-09-20T01:15:32.828Z,2.10
2023-09-20T01:18:00.337Z,1.90
2023-09-20T01:20:28.412Z,2.10
2023-09-20T01:22:55.907Z,1.63
2023-09-20T01:25:25.824Z,1.90
2023-09-20T01:27:53.280Z,2.20
2023-09-20T01:30:20.068Z,2.17
2023-09-20T01:32:47.169Z,1.90
2023-09-20T01:35:17.605Z,2.00
2023-09-20T01:37:44.289Z,2.13
2023-09-20T01:40:16.866Z,1.83
2023-09-20T01:42:46.889Z,1.97
2023-09-20T01:45:19.910Z,2.37
2023-09-20T01:47:48.959Z,2.37
2023-09-20T01:50:21.309Z,2.17
2023-09-20T01:52:49.265Z,2.10
2023-09-20T01:55:20.071Z,2.50
2023-09-20T01:57:47.170Z,2.23
2023-09-20T02:00:17.868Z,2.33
2023-09-20T02:02:48.087Z,2.53
2023-09-20T02:05:15.445Z,2.60
2023-09-20T02:07:42.589Z,2.60
2023-09-20T02:10:09.511Z,2.57
2023-09-20T02:12:36.024Z,1.80
2023-09-20T02:15:03.153Z,2.57
2023-09-20T02:17:30.296Z,2.33
2023-09-20T02:19:56.951Z,2.27
2023-09-20T02:22:23.666Z,2.50
2023-09-20T02:24:50.767Z,2.40
2023-09-20T02:27:17.326Z,2.13
2023-09-20T02:29:43.874Z,2.37
2023-09-20T02:32:10.914Z,2.20
2023-09-20T02:34:39.027Z,2.13
2023-09-20T02:37:05.940Z,2.30
2023-09-20T02:39:34.184Z,2.00
2023-09-20T02:42:01.150Z,1.90
2023-09-20T02:44:28.748Z,2.00
2023-09-20T02:46:55.314Z,2.20
2023-09-20T02:49:22.148Z,2.47
2023-09-20T02:51:51.226Z,2.33
2023-09-20T02:54:19.060Z,2.70
2023-09-20T02:56:46.114Z,1.90
2023-09-20T02:59:13.294Z,2.50
2023-09-20T03:01:40.184Z,2.70
2023-09-20T03:04:06.915Z,2.33
2023-09-20T03:06:33.577Z,2.60
2023-09-20T03:09:00.144Z,2.33
2023-09-20T03:11:27.843Z,2.70
2023-09-20T03:13:54.386Z,2.40
2023-09-20T03:16:21.181Z,2.20
2023-09-20T03:18:48.227Z,2.40
2023-09-20T03:21:15.854Z,2.60
2023-09-20T03:23:43.989Z,2.50
2023-09-20T03:26:11.043Z,2.90
2023-09-20T03:28:37.751Z,2.00
2023-09-20T03:31:06.686Z,2.50
2023-09-20T03:33:33.899Z,2.07
2023-09-20T03:36:06.210Z,2.17
2023-09-20T03:38:33.580Z,2.50
2023-09-20T03:41:00.267Z,2.33
2023-09-20T03:43:29.049Z,2.10
2023-09-20T03:45:55.955Z,2.70
2023-09-20T03:48:22.677Z,2.70
2023-09-20T03:50:50.940Z,2.47
2023-09-20T03:53:18.381Z,2.60
2023-09-20T03:55:46.534Z,2.23
2023-09-20T03:58:13.060Z,2.30
2023-09-20T04:00:39.934Z,2.30
2023-09-20T04:03:14.947Z,2.60
2023-09-20T04:05:46.410Z,2.40
2023-09-20T04:08:13.826Z,2.80
2023-09-20T04:10:42.319Z,2.70
2023-09-20T04:13:09.759Z,2.53
2023-09-20T04:15:38.915Z,2.90
2023-09-20T04:18:27.652Z,2.57
2023-09-20T04:21:15.236Z,2.37
2023-09-20T04:23:43.227Z,2.80
2023-09-20T04:26:10.430Z,2.33
2023-09-20T04:28:37.348Z,2.30
2023-09-20T04:31:05.063Z,2.53
2023-09-20T04:33:31.646Z,2.20
2023-09-20T04:35:59.819Z,2.50
2023-09-20T04:38:26.523Z,2.60
2023-09-20T04:40:54.901Z,2.80
2023-09-20T04:43:23.784Z,2.30
2023-09-20T04:45:50.447Z,2.50
2023-09-20T04:48:17.025Z,2.90
2023-09-20T04:50:43.711Z,2.70
2023-09-20T04:53:10.457Z,2.80
2023-09-20T04:55:37.252Z,2.63
2023-09-20T04:58:04.043Z,2.20
2023-09-20T05:00:38.987Z,2.70
2023-09-20T05:03:06.131Z,2.80
2023-09-20T05:05:32.957Z,2.47
2023-09-20T05:07:59.653Z,2.60
2023-09-20T05:10:26.525Z,2.70
2023-09-20T05:12:53.089Z,3.00
2023-09-20T05:15:19.879Z,2.70
2023-09-20T05:17:46.977Z,2.23
2023-09-20T05:20:14.987Z,2.37
2023-09-20T05:22:42.237Z,2.37
2023-09-20T05:25:09.214Z,2.27
2023-09-20T05:27:35.829Z,2.40
2023-09-20T05:30:02.517Z,2.40
2023-09-20T05:32:29.234Z,2.63
2023-09-20T05:34:56.625Z,2.60
2023-09-20T05:37:23.939Z,2.67
2023-09-20T05:39:51.230Z,2.47
2023-09-20T05:42:18.656Z,2.60
2023-09-20T05:44:45.401Z,2.33
2023-09-20T05:47:12.012Z,2.20
2023-09-20T05:49:38.689Z,2.50
2023-09-20T05:52:07.626Z,2.57
2023-09-20T05:54:34.375Z,2.50
2023-09-20T05:57:01.058Z,2.23
2023-09-20T05:59:31.770Z,2.60
2023-09-20T06:01:59.992Z,2.20
2023-09-20T06:04:26.582Z,3.20
2023-09-20T06:06:55.363Z,2.27
2023-09-20T06:09:23.208Z,2.67
2023-09-20T06:11:50.023Z,2.50
2023-09-20T06:14:18.041Z,3.00
2023-09-20T06:16:44.711Z,2.30
2023-09-20T06:19:13.191Z,3.03
2023-09-20T06:21:41.278Z,2.40
2023-09-20T06:24:12.741Z,2.47
2023-09-20T06:26:42.856Z,2.70
2023-09-20T06:29:12.550Z,2.60
2023-09-20T06:31:39.192Z,2.20
2023-09-20T06:34:06.981Z,2.63
2023-09-20T06:36:33.777Z,2.50
2023-09-20T06:39:01.170Z,2.20
2023-09-20T06:41:27.912Z,2.13
2023-09-20T06:43:54.660Z,2.30
2023-09-20T06:46:25.519Z,2.73
2023-09-20T06:48:52.608Z,2.00
2023-09-20T06:51:19.265Z,2.30
2023-09-20T06:53:46.026Z,2.27
2023-09-20T06:56:12.673Z,2.20
2023-09-20T06:58:39.733Z,2.27
2023-09-20T07:01:07.836Z,2.10
2023-09-20T07:03:34.941Z,2.40
2023-09-20T07:06:03.715Z,2.60
2023-09-20T07:08:35.788Z,2.30
2023-09-20T07:11:03.948Z,2.23
2023-09-20T07:13:34.256Z,2.30
2023-09-20T07:16:05.930Z,2.00
2023-09-20T07:18:32.959Z,2.30
2023-09-20T07:20:59.660Z,2.37
2023-09-20T07:23:26.402Z,2.30
2023-09-20T07:25:52.967Z,2.50
2023-09-20T07:28:19.791Z,2.10
2023-09-20T07:30:47.038Z,2.30
2023-09-20T07:33:20.641Z,2.70
2023-09-20T07:35:54.224Z,2.33
2023-09-20T07:38:28.614Z,2.30
2023-09-20T07:41:19.376Z,2.40
2023-09-20T07:43:48.753Z,2.20
2023-09-20T07:46:17.074Z,2.23
2023-09-20T07:48:49.764Z,2.30
2023-09-20T07:51:25.185Z,2.17
2023-09-20T07:53:55.609Z,2.40
2023-09-20T07:56:22.777Z,2.20
2023-09-20T07:58:49.618Z,2.27
2023-09-20T08:01:23.690Z,2.00
2023-09-20T08:03:55.882Z,2.43
2023-09-20T08:06:25.187Z,2.50
2023-09-20T08:08:51.961Z,2.80
2023-09-20T08:11:21.128Z,2.27
2023-09-20T08:13:50.010Z,2.43
2023-09-20T08:16:17.185Z,2.17
2023-09-20T08:19:02.888Z,2.73
2023-09-20T08:21:30.945Z,2.30
2023-09-20T08:24:16.438Z,2.57
2023-09-20T08:27:01.615Z,2.53
2023-09-20T08:29:47.059Z,2.10
2023-09-20T08:32:32.422Z,2.17
2023-09-20T08:35:17.963Z,2.00
2023-09-20T08:38:03.454Z,2.50
2023-09-20T08:40:48.715Z,2.27
2023-09-20T08:43:34.086Z,2.60
2023-09-20T08:46:24.115Z,2.93
2023-09-20T08:49:09.508Z,2.20
2023-09-20T08:52:13.423Z,2.60
2023-09-20T08:54:59.720Z,2.50
2023-09-20T08:57:45.715Z,2.93
2023-09-20T09:00:33.728Z,2.50
2023-09-20T09:03:05.669Z,2.80
2023-09-20T09:05:33.802Z,2.13
2023-09-20T09:08:01.473Z,2.23
2023-09-20T09:10:28.488Z,2.53
2023-09-20T09:12:57.081Z,2.70
2023-09-20T09:15:24.823Z,2.10
2023-09-20T09:17:51.575Z,2.20
2023-09-20T09:20:22.614Z,2.50
2023-09-20T09:22:50.644Z,2.47
2023-09-20T09:25:20.856Z,2.37
2023-09-20T09:27:47.670Z,2.50
2023-09-20T09:30:16.111Z,2.50
2023-09-20T09:32:44.094Z,2.63
2023-09-20T09:35:11.226Z,2.67
2023-09-20T09:37:38.220Z,2.27
2023-09-20T09:40:08.913Z,2.57
2023-09-20T09:42:35.569Z,2.20
2023-09-20T09:45:05.217Z,2.63
2023-09-20T09:47:32.166Z,2.40
2023-09-20T09:50:02.587Z,2.30
2023-09-20T09:52:30.252Z,2.50
2023-09-20T09:54:57.386Z,2.00
2023-09-20T09:57:24.639Z,2.20
2023-09-20T09:59:52.397Z,2.50
2023-09-20T10:02:20.163Z,2.27
2023-09-20T10:04:53.217Z,2.17
2023-09-20T10:07:23.317Z,2.10
2023-09-20T10:09:54.071Z,2.20
2023-09-20T10:12:22.666Z,2.07
2023-09-20T10:14:49.655Z,2.20
2023-09-20T10:17:21.989Z,2.10
2023-09-20T10:19:53.560Z,2.07
2023-09-20T10:22:21.256Z,2.50
2023-09-20T10:24:52.169Z,2.17
2023-09-20T10:27:19.142Z,2.07
2023-09-20T10:30:00.265Z,2.10
2023-09-20T10:32:33.278Z,2.03
2023-09-20T10:35:20.895Z,1.80
2023-09-20T10:38:00.889Z,1.80
2023-09-20T10:40:46.303Z,2.00
2023-09-20T10:43:14.608Z,2.13
2023-09-20T10:45:41.519Z,1.87
2023-09-20T10:48:14.163Z,2.07
2023-09-20T10:50:50.602Z,1.90
2023-09-20T10:53:20.618Z,1.80
2023-09-20T10:55:47.433Z,2.00
2023-09-20T10:58:16.585Z,2.10
2023-09-20T11:00:43.242Z,1.73
2023-09-20T11:03:10.234Z,2.20
2023-09-20T11:05:37.326Z,1.67
2023-09-20T11:08:07.753Z,2.03
2023-09-20T11:10:38.001Z,1.90
2023-09-20T11:13:07.019Z,1.70
2023-09-20T11:15:41.724Z,1.90
2023-09-20T11:18:09.343Z,1.90
2023-09-20T11:20:36.367Z,2.17
2023-09-20T11:23:03.717Z,1.70
2023-09-20T11:25:30.728Z,1.70
2023-09-20T11:27:58.141Z,2.00
2023-09-20T11:30:32.679Z,1.63
2023-09-20T11:32:59.567Z,2.00
2023-09-20T11:35:36.056Z,1.80
2023-09-20T11:38:04.962Z,1.80
2023-09-20T11:40:33.036Z,2.10
2023-09-20T11:42:59.851Z,1.80
2023-09-20T11:45:48.682Z,2.03
2023-09-20T11:48:14.930Z,1.97
2023-09-20T11:50:46.091Z,2.07
2023-09-20T11:53:16.487Z,1.80
2023-09-20T11:55:43.663Z,1.73
2023-09-20T11:58:15.367Z,1.90
2023-09-20T12:00:44.255Z,1.90
2023-09-20T12:03:11.192Z,1.87
2023-09-20T12:05:38.099Z,1.88
2023-09-20T12:08:07.641Z,1.77
2023-09-20T12:10:34.485Z,1.83
2023-09-20T12:13:01.265Z,1.60
2023-09-20T12:15:27.892Z,1.70
2023-09-20T12:18:00.569Z,2.00
2023-09-20T12:20:28.002Z,1.60
2023-09-20T12:22:57.106Z,1.80
2023-09-20T12:25:23.741Z,1.42
2023-09-20T12:27:50.328Z,1.63
2023-09-20T12:30:17.034Z,1.53
2023-09-20T12:32:43.751Z,1.30
2023-09-20T12:35:11.212Z,1.40
2023-09-20T12:37:38.297Z,1.30
2023-09-20T12:40:11.718Z,1.30
2023-09-20T12:42:38.988Z,1.52
2023-09-20T12:45:08.922Z,1.40
2023-09-20T12:47:36.334Z,1.30
2023-09-20T12:50:03.532Z,1.40
2023-09-20T12:52:30.261Z,1.40
2023-09-20T12:54:57.324Z,1.40
2023-09-20T12:57:26.269Z,0.93
2023-09-20T12:59:53.656Z,1.40
2023-09-20T13:02:20.352Z,1.10
2023-09-20T13:04:51.851Z,1.30
2023-09-20T13:07:19.283Z,1.30
2023-09-20T13:09:45.867Z,1.40
2023-09-20T13:12:13.150Z,1.10
2023-09-20T13:14:41.837Z,1.40
2023-09-20T13:17:08.807Z,1.40
2023-09-20T13:19:35.458Z,1.20
2023-09-20T13:22:03.126Z,1.40
2023-09-20T13:24:30.765Z,1.33
2023-09-20T13:26:57.377Z,1.45
2023-09-20T13:29:25.254Z,1.30
2023-09-20T13:31:54.790Z,1.13
2023-09-20T13:34:23.454Z,1.30
2023-09-20T13:36:50.118Z,1.48
2023-09-20T13:39:19.650Z,1.40
2023-09-20T13:41:46.753Z,1.20
2023-09-20T13:44:13.466Z,1.30
2023-09-20T13:46:40.957Z,1.38
2023-09-20T13:49:08.055Z,1.30
2023-09-20T13:51:34.897Z,1.37
2023-09-20T13:54:01.712Z,1.60
2023-09-20T13:56:29.450Z,1.35
2023-09-20T13:58:56.085Z,1.40
2023-09-20T14:01:25.630Z,1.20
2023-09-20T14:03:52.292Z,1.50
2023-09-20T14:06:19.023Z,1.30
2023-09-20T14:08:45.907Z,1.20
2023-09-20T14:11:14.332Z,1.40
2023-09-20T14:13:42.079Z,1.40
2023-09-20T14:16:11.996Z,1.40
2023-09-20T14:18:38.721Z,1.20
2023-09-20T14:21:06.880Z,1.10
2023-09-20T14:23:34.737Z,1.30
2023-09-20T14:26:01.542Z,1.10
2023-09-20T14:28:28.258Z,1.33
2023-09-20T14:30:55.075Z,1.35
2023-09-20T14:33:22.981Z,1.43
2023-09-20T14:35:50.878Z,1.42
2023-09-20T14:38:18.040Z,1.30
2023-09-20T14:40:44.678Z,1.30
2023-09-20T14:43:12.244Z,1.50
2023-09-20T14:45:38.959Z,1.42
2023-09-20T14:48:05.959Z,1.40
2023-09-20T14:50:33.165Z,1.60
2023-09-20T14:53:00.914Z,1.48
2023-09-20T14:55:29.883Z,1.60
2023-09-20T14:57:57.396Z,1.52
2023-09-20T15:00:26.446Z,1.70
2023-09-20T15:02:54.303Z,1.40
2023-09-20T15:05:21.154Z,1.33
2023-09-20T15:07:55.362Z,1.30
2023-09-20T15:10:26.335Z,1.50
2023-09-20T15:12:58.674Z,1.27
2023-09-20T15:15:27.976Z,1.40
2023-09-20T15:17:54.721Z,1.40
2023-09-20T15:20:21.454Z,1.50
2023-09-20T15:22:49.089Z,1.70
2023-09-20T15:25:16.333Z,1.57
2023-09-20T15:27:45.613Z,1.47
2023-09-20T15:30:13.697Z,1.70
2023-09-20T15:32:41.600Z,1.47
2023-09-20T15:35:11.200Z,1.50
2023-09-20T15:37:47.493Z,1.50
2023-09-20T15:40:16.005Z,1.67
2023-09-20T15:42:46.996Z,1.67
2023-09-20T15:45:14.796Z,1.80
2023-09-20T15:47:41.829Z,1.63
2023-09-20T15:50:09.427Z,1.43
2023-09-20T15:52:42.386Z,1.50
2023-09-20T15:55:09.564Z,1.57
2023-09-20T15:57:36.741Z,1.50
2023-09-20T16:00:04.076Z,1.53
2023-09-20T16:02:30.953Z,1.60
2023-09-20T16:04:57.646Z,1.77
2023-09-20T16:07:25.350Z,1.80
2023-09-20T16:09:53.694Z,1.73
2023-09-20T16:12:20.324Z,1.90
2023-09-20T16:14:47.015Z,1.40
2023-09-20T16:17:15.121Z,1.73
2023-09-20T16:19:43.193Z,1.50
2023-09-20T16:22:09.968Z,1.30
2023-09-20T16:24:36.578Z,1.67
2023-09-20T16:27:04.218Z,1.87
2023-09-20T16:29:31.602Z,1.43
2023-09-20T16:31:58.274Z,1.50
2023-09-20T16:34:29.086Z,1.67
2023-09-20T16:36:56.416Z,1.90
2023-09-20T16:39:23.098Z,1.67
2023-09-20T16:41:50.357Z,1.60
2023-09-20T16:44:16.950Z,1.97
2023-09-20T16:46:44.117Z,1.57
2023-09-20T16:49:11.167Z,1.63
2023-09-20T16:51:37.798Z,1.70
2023-09-20T16:54:05.199Z,1.90
2023-09-20T16:56:31.947Z,1.50
2023-09-20T16:58:58.689Z,1.70
2023-09-20T17:01:26.177Z,1.70
2023-09-20T17:03:53.038Z,1.80
2023-09-20T17:06:19.897Z,1.93
2023-09-20T17:08:46.580Z,1.80
2023-09-20T17:11:13.165Z,1.80
2023-09-20T17:13:39.980Z,1.80
2023-09-20T17:16:08.490Z,1.83
2023-09-20T17:18:35.601Z,1.70
2023-09-20T17:21:02.382Z,1.97
2023-09-20T17:23:29.991Z,1.90
2023-09-20T17:25:58.389Z,1.60
2023-09-20T17:28:25.295Z,2.03
2023-09-20T17:30:54.250Z,1.70
2023-09-20T17:33:21.775Z,1.57
2023-09-20T17:35:49.141Z,1.57
2023-09-20T17:38:15.723Z,1.90
2023-09-20T17:40:42.463Z,1.80
2023-09-20T17:43:09.105Z,1.70
2023-09-20T17:45:36.307Z,2.10
2023-09-20T17:48:03.197Z,2.10
2023-09-20T17:50:30.630Z,1.90
2023-09-20T17:52:57.521Z,1.90
2023-09-20T17:55:24.270Z,1.97
2023-09-20T17:57:52.434Z,1.60
2023-09-20T18:00:25.623Z,1.97
2023-09-20T18:02:53.079Z,1.80
2023-09-20T18:05:20.228Z,1.87
2023-09-20T18:07:47.072Z,2.03
2023-09-20T18:10:15.772Z,1.80
2023-09-20T18:12:42.752Z,2.00
2023-09-20T18:15:09.920Z,2.40
2023-09-20T18:17:38.706Z,2.20
2023-09-20T18:20:10.675Z,2.30
2023-09-20T18:22:37.885Z,2.17
2023-09-20T18:25:06.880Z,1.90
2023-09-20T18:27:34.199Z,2.00
2023-09-20T18:30:01.314Z,1.83
2023-09-20T18:32:28.724Z,2.17
2023-09-20T18:34:55.347Z,2.17
2023-09-20T18:37:25.050Z,2.07
2023-09-20T18:39:52.050Z,2.17
2023-09-20T18:42:20.790Z,2.10
2023-09-20T18:44:48.042Z,1.63
2023-09-20T18:47:15.233Z,1.90
2023-09-20T18:49:42.144Z,2.30
2023-09-20T18:52:14.062Z,2.00
2023-09-20T18:54:40.807Z,2.13
2023-09-20T18:57:07.510Z,2.20
2023-09-20T18:59:43.453Z,2.13
2023-09-20T19:02:12.975Z,1.93
2023-09-20T19:04:41.234Z,2.27
2023-09-20T19:07:09.953Z,2.03
2023-09-20T19:09:37.478Z,2.70
2023-09-20T19:12:08.154Z,2.37
2023-09-20T19:14:35.903Z,2.27
2023-09-20T19:17:02.808Z,1.90
2023-09-20T19:19:29.468Z,2.00
2023-09-20T19:21:58.730Z,2.10
2023-09-20T19:24:32.167Z,1.90
2023-09-20T19:27:00.464Z,2.53
2023-09-20T19:29:28.673Z,1.90
2023-09-20T19:31:55.496Z,1.90
2023-09-20T19:34:22.291Z,2.03
2023-09-20T19:36:49.405Z,2.10
2023-09-20T19:39:15.997Z,2.30
2023-09-20T19:41:42.575Z,2.30
2023-09-20T19:44:09.290Z,2.20
2023-09-20T19:46:36.070Z,2.00
2023-09-20T19:49:02.694Z,1.90
2023-09-20T19:51:31.165Z,1.90
2023-09-20T19:53:58.584Z,1.87
2023-09-20T19:56:34.100Z,2.20
2023-09-20T19:59:00.730Z,1.93
2023-09-20T20:01:27.436Z,1.90
2023-09-20T20:03:54.153Z,2.27
2023-09-20T20:06:20.852Z,1.90
2023-09-20T20:08:47.669Z,2.20
2023-09-20T20:11:14.452Z,2.00
2023-09-20T20:13:41.719Z,2.10
2023-09-20T20:16:15.387Z,2.03
2023-09-20T20:18:46.333Z,1.93
2023-09-20T20:21:16.291Z,2.07
2023-09-20T20:23:45.386Z,1.93
2023-09-20T20:26:12.609Z,2.20
2023-09-20T20:28:39.356Z,2.00
2023-09-20T20:31:05.967Z,1.90
2023-09-20T20:33:35.643Z,2.20
2023-09-20T20:36:04.659Z,2.17
2023-09-20T20:38:31.381Z,1.90
2023-09-20T20:40:58.085Z,2.20
2023-09-20T20:43:24.645Z,2.23
2023-09-20T20:45:51.220Z,2.23
2023-09-20T20:48:17.985Z,1.90
2023-09-20T20:50:45.597Z,2.13
2023-09-20T20:53:21.669Z,1.93
2023-09-20T20:55:58.762Z,2.20
2023-09-20T20:58:25.659Z,1.90
2023-09-20T21:00:55.799Z,2.17
2023-09-20T21:03:22.863Z,2.03
2023-09-20T21:05:50.745Z,2.00
2023-09-20T21:08:18.665Z,1.80
2023-09-20T21:10:45.754Z,2.23
2023-09-20T21:13:13.588Z,2.57
2023-09-20T21:15:40.781Z,2.27
2023-09-20T21:18:10.522Z,1.70
2023-09-20T21:20:37.975Z,2.10
2023-09-20T21:23:05.741Z,2.00
2023-09-20T21:25:37.134Z,2.50
2023-09-20T21:28:03.881Z,1.80
2023-09-20T21:30:33.926Z,1.90
2023-09-20T21:33:05.334Z,1.93
2023-09-20T21:35:33.395Z,2.30
2023-09-20T21:38:00.501Z,2.00
2023-09-20T21:40:31.146Z,2.00
2023-09-20T21:42:59.181Z,2.10
2023-09-20T21:45:27.571Z,2.30
2023-09-20T21:47:54.590Z,2.07
2023-09-20T21:50:22.242Z,2.30
2023-09-20T21:52:50.074Z,2.47
2023-09-20T21:55:16.662Z,2.40
2023-09-20T21:57:43.194Z,2.50
2023-09-20T22:00:33.588Z,1.97
2023-09-20T22:03:05.470Z,1.97
2023-09-20T22:05:34.000Z,2.13
2023-09-20T22:08:04.552Z,2.07
2023-09-20T22:10:51.819Z,2.40
2023-09-20T22:13:18.502Z,2.10
2023-09-20T22:15:46.551Z,2.00
2023-09-20T22:18:26.173Z,2.00
2023-09-20T22:20:53.648Z,2.13
2023-09-20T22:23:20.823Z,1.83
2023-09-20T22:25:49.516Z,2.00
2023-09-20T22:28:19.216Z,2.10
2023-09-20T22:30:46.179Z,2.10
2023-09-20T22:33:13.812Z,2.10
2023-09-20T22:35:42.509Z,2.30
2023-09-20T22:38:10.693Z,2.07
2023-09-20T22:40:37.477Z,2.00
2023-09-20T22:43:05.636Z,2.00
2023-09-20T22:45:36.053Z,2.50
2023-09-20T22:48:10.056Z,1.93
2023-09-20T22:50:40.712Z,2.37
2023-09-20T22:53:10.194Z,2.30
2023-09-20T22:55:41.036Z,2.17
2023-09-20T22:58:13.935Z,2.10
2023-09-20T23:00:45.330Z,1.90
2023-09-20T23:03:18.194Z,2.40
2023-09-20T23:05:46.917Z,2.20
2023-09-20T23:08:15.711Z,2.40
2023-09-20T23:10:46.374Z,2.00
2023-09-20T23:13:19.940Z,2.10
2023-09-20T23:15:46.944Z,1.90
2023-09-20T23:18:13.611Z,2.10
2023-09-20T23:20:43.765Z,1.83
2023-09-20T23:23:11.757Z,2.10
2023-09-20T23:25:39.645Z,2.83
2023-09-20T23:28:12.197Z,2.13
2023-09-20T23:30:40.870Z,2.10
2023-09-20T23:33:09.542Z,1.83
2023-09-20T23:35:38.730Z,2.43
2023-09-20T23:38:13.249Z,2.00
2023-09-20T23:40:41.491Z,1.90
2023-09-20T23:43:08.517Z,2.20
2023-09-20T23:45:35.689Z,2.20
2023-09-20T23:48:04.372Z,2.10
2023-09-20T23:50:31.067Z,2.00
2023-09-20T23:52:58.188Z,2.20
2023-09-20T23:55:28.585Z,2.10
2023-09-20T23:57:55.174Z,2.00
